Time;durP1;ratioP1;P1;durP2;ratioP2;P2;SDS_P1;SDS_P2;PMS_P1;PMS_P2;Temp;Humidity;BMP_temperature;BMP_pressure;BME280_temperature;BME280_humidity;BME280_pressure;Samples;Min_cycle;Max_cycle;Signal;HPM_P1;HPM_P2
2021/05/09 00:01:32;;;;;;;6.20;4.10;;;12.90;69.00;;;;;;6218178;23;20657;-83
2021/05/09 00:04:01;;;;;;;4.78;4.13;;;12.90;69.20;;;;;;6219062;23;20160;-83
2021/05/09 00:06:26;;;;;;;4.57;4.03;;;12.90;69.50;;;;;;6168235;23;20164;-83
2021/05/09 00:08:53;;;;;;;6.87;4.87;;;13.00;69.90;;;;;;6224566;23;20181;-83
2021/05/09 00:11:19;;;;;;;4.63;4.10;;;12.90;69.30;;;;;;6220151;23;20169;-83
2021/05/09 00:13:45;;;;;;;5.27;3.70;;;12.90;69.50;;;;;;6192230;23;20200;-83
2021/05/09 00:16:14;;;;;;;4.78;3.78;;;12.90;68.70;;;;;;6218330;23;20145;-83
2021/05/09 00:18:39;;;;;;;6.43;4.05;;;13.00;68.60;;;;;;6218513;23;20152;-82
2021/05/09 00:21:05;;;;;;;4.70;4.27;;;13.00;69.10;;;;;;6218596;23;20183;-82
2021/05/09 00:23:31;;;;;;;7.33;4.17;;;13.00;68.30;;;;;;6191613;23;20149;-83
2021/05/09 00:25:57;;;;;;;4.93;4.10;;;13.00;69.20;;;;;;6192381;23;20391;-82
2021/05/09 00:28:22;;;;;;;5.95;4.18;;;13.00;69.20;;;;;;6192035;23;20160;-83
2021/05/09 00:30:48;;;;;;;7.70;4.43;;;13.00;69.10;;;;;;6192761;23;20499;-83
2021/05/09 00:33:14;;;;;;;5.07;3.67;;;13.00;68.60;;;;;;6192976;23;20149;-82
2021/05/09 00:35:40;;;;;;;4.23;3.83;;;13.00;68.90;;;;;;6193424;23;20145;-85
2021/05/09 00:38:06;;;;;;;4.78;3.88;;;13.00;69.50;;;;;;6193309;23;20375;-82
2021/05/09 00:40:31;;;;;;;5.50;3.90;;;13.00;70.90;;;;;;6219958;23;20235;-82
2021/05/09 00:42:57;;;;;;;5.97;4.10;;;13.00;70.40;;;;;;6219466;23;20167;-83
2021/05/09 00:45:23;;;;;;;5.47;3.90;;;13.00;70.60;;;;;;6193115;23;20599;-82
2021/05/09 00:47:49;;;;;;;4.10;3.80;;;13.00;69.70;;;;;;6221715;23;20148;-82
2021/05/09 00:50:15;;;;;;;3.83;3.33;;;13.00;70.00;;;;;;6194152;23;20184;-83
2021/05/09 00:52:45;;;;;;;6.35;3.60;;;13.00;70.40;;;;;;6194395;23;20148;-83
2021/05/09 00:55:12;;;;;;;4.53;3.70;;;13.00;71.40;;;;;;6194094;23;20475;-82
2021/05/09 00:57:39;;;;;;;4.30;3.85;;;13.00;71.20;;;;;;6169534;23;20163;-82
2021/05/09 01:00:07;;;;;;;5.00;4.50;;;13.00;72.00;;;;;;6219389;23;20153;-83
2021/05/09 01:02:33;;;;;;;6.63;4.80;;;13.00;71.10;;;;;;6191689;23;20487;-82
2021/05/09 01:05:00;;;;;;;6.22;4.22;;;13.00;71.40;;;;;;6167232;23;20603;-82
2021/05/09 01:07:26;;;;;;;4.82;3.90;;;13.00;71.70;;;;;;6191465;23;20163;-82
2021/05/09 01:09:52;;;;;;;6.38;4.38;;;13.00;72.10;;;;;;6217853;23;20196;-82
2021/05/09 01:12:18;;;;;;;4.10;3.70;;;13.00;73.10;;;;;;6217689;23;20498;-82
2021/05/09 01:14:44;;;;;;;5.30;3.90;;;13.00;72.40;;;;;;6169194;23;20176;-83
2021/05/09 01:17:12;;;;;;;7.05;3.85;;;13.00;73.20;;;;;;6196306;23;20176;-82
2021/05/09 01:19:42;;;;;;;8.82;4.35;;;13.00;72.20;;;;;;6192315;23;20541;-82
2021/05/09 01:22:10;;;;;;;5.50;4.10;;;13.00;72.30;;;;;;6218429;23;20188;-82
2021/05/09 01:24:36;;;;;;;4.18;3.75;;;12.90;72.40;;;;;;6219434;23;20149;-83
2021/05/09 01:27:03;;;;;;;6.60;4.73;;;13.00;72.70;;;;;;6220243;23;20175;-82
2021/05/09 01:29:29;;;;;;;5.95;3.65;;;13.00;73.70;;;;;;6191745;23;20184;-82
2021/05/09 01:31:55;;;;;;;4.17;3.77;;;13.00;73.70;;;;;;6217421;23;20165;-82
2021/05/09 01:34:21;;;;;;;6.50;3.73;;;13.00;73.10;;;;;;6166092;23;20164;-82
2021/05/09 01:36:46;;;;;;;4.68;4.13;;;12.90;73.60;;;;;;6217612;23;20369;-82
2021/05/09 01:39:12;;;;;;;4.70;3.80;;;12.90;74.20;;;;;;6217053;23;20188;-82
2021/05/09 01:41:38;;;;;;;5.77;4.80;;;13.00;74.50;;;;;;6216662;23;20192;-82
2021/05/09 01:44:06;;;;;;;5.93;4.30;;;13.00;74.60;;;;;;6216978;23;20425;-83
2021/05/09 01:46:32;;;;;;;4.38;3.65;;;13.00;75.00;;;;;;6216890;23;20157;-82
2021/05/09 01:48:58;;;;;;;5.22;4.20;;;13.00;74.30;;;;;;6190699;23;20622;-83
2021/05/09 01:51:24;;;;;;;4.67;4.00;;;12.90;75.70;;;;;;6217319;23;20165;-83
2021/05/09 01:53:49;;;;;;;5.30;3.80;;;13.00;74.90;;;;;;6166002;23;20180;-82
2021/05/09 01:56:15;;;;;;;5.93;4.20;;;12.90;74.30;;;;;;6217332;23;20459;-82
2021/05/09 01:58:41;;;;;;;3.83;3.20;;;13.00;75.30;;;;;;6190146;23;20924;-83
2021/05/09 02:01:07;;;;;;;4.47;3.95;;;12.90;75.30;;;;;;6218543;23;20173;-82
2021/05/09 02:03:33;;;;;;;4.13;3.45;;;12.90;75.90;;;;;;6191694;23;20476;-82
2021/05/09 02:05:58;;;;;;;6.10;3.90;;;12.90;76.10;;;;;;6216790;23;20179;-82
2021/05/09 02:08:24;;;;;;;6.70;4.27;;;12.80;75.90;;;;;;6165985;23;20168;-82
2021/05/09 02:10:50;;;;;;;5.50;4.10;;;12.90;76.50;;;;;;6191952;23;20172;-81
2021/05/09 02:13:15;;;;;;;4.90;3.70;;;12.90;77.00;;;;;;6191514;23;20156;-82
2021/05/09 02:15:43;;;;;;;6.20;3.93;;;12.90;77.00;;;;;;6191789;23;20144;-82
2021/05/09 02:18:09;;;;;;;5.57;4.18;;;12.90;78.20;;;;;;6218506;23;20153;-82
2021/05/09 02:20:35;;;;;;;5.37;4.10;;;12.90;78.00;;;;;;6218170;23;20172;-83
2021/05/09 02:23:00;;;;;;;6.70;4.43;;;12.80;77.00;;;;;;6225884;23;20179;-82
2021/05/09 02:25:26;;;;;;;5.77;4.30;;;12.80;77.90;;;;;;6191575;23;20145;-82
2021/05/09 02:27:54;;;;;;;6.20;4.30;;;12.80;77.90;;;;;;6218511;23;20165;-82
2021/05/09 02:30:20;;;;;;;6.93;4.53;;;12.80;78.00;;;;;;6192775;23;20515;-83
2021/05/09 02:32:46;;;;;;;7.53;4.68;;;12.90;78.80;;;;;;6217982;23;20145;-82
2021/05/09 02:35:11;;;;;;;4.80;3.80;;;12.80;78.40;;;;;;6218600;23;20203;-82
2021/05/09 02:37:37;;;;;;;4.27;3.77;;;12.80;78.80;;;;;;6218792;23;20152;-83
2021/05/09 02:40:07;;;;;;;5.00;4.17;;;12.80;78.90;;;;;;6192006;23;20529;-83
2021/05/09 02:42:32;;;;;;;5.45;4.13;;;12.80;78.90;;;;;;6166699;23;20183;-84
2021/05/09 02:44:58;;;;;;;7.43;4.10;;;12.80;79.80;;;;;;6218486;23;20153;-83
2021/05/09 02:47:30;;;;;;;6.27;4.50;;;12.80;80.20;;;;;;6218548;23;20156;-82
2021/05/09 02:49:57;;;;;;;4.53;3.88;;;12.80;80.90;;;;;;6217852;23;20549;-82
2021/05/09 02:52:23;;;;;;;6.45;4.18;;;12.70;80.20;;;;;;6190878;23;20176;-83
2021/05/09 02:54:48;;;;;;;5.47;4.60;;;12.80;80.80;;;;;;6191095;23;20598;-83
2021/05/09 02:57:14;;;;;;;5.77;4.13;;;12.80;80.60;;;;;;6190999;23;20148;-82
2021/05/09 02:59:40;;;;;;;4.30;3.90;;;12.80;80.90;;;;;;6191649;23;20179;-83
2021/05/09 03:02:05;;;;;;;6.33;4.23;;;12.80;81.50;;;;;;6217323;23;20169;-82
2021/05/09 03:04:31;;;;;;;4.23;3.47;;;12.80;81.70;;;;;;6191606;23;20179;-82
2021/05/09 03:06:56;;;;;;;7.10;5.00;;;12.80;81.70;;;;;;6192096;23;20460;-82
2021/05/09 03:09:21;;;;;;;5.30;4.23;;;12.80;82.40;;;;;;6166579;23;20184;-82
2021/05/09 03:11:47;;;;;;;6.17;4.43;;;12.80;82.40;;;;;;6217748;23;20165;-83
2021/05/09 03:14:13;;;;;;;4.73;3.67;;;12.80;82.60;;;;;;6167165;23;20464;-83
2021/05/09 03:16:38;;;;;;;5.23;4.20;;;12.80;82.30;;;;;;6217631;23;20195;-82
2021/05/09 03:19:04;;;;;;;5.53;4.10;;;12.70;83.30;;;;;;6217799;23;20164;-82
2021/05/09 03:21:29;;;;;;;4.80;3.70;;;12.70;83.60;;;;;;6165733;23;20215;-82
2021/05/09 03:23:55;;;;;;;5.53;4.33;;;12.70;83.20;;;;;;6217861;23;20156;-83
2021/05/09 03:26:20;;;;;;;5.60;4.00;;;12.60;84.20;;;;;;6217873;23;20176;-82
2021/05/09 03:28:46;;;;;;;4.50;4.07;;;12.60;84.40;;;;;;6220571;23;20240;-82
2021/05/09 03:31:12;;;;;;;4.60;4.10;;;12.60;84.60;;;;;;6198664;23;20685;-82
2021/05/09 03:33:37;;;;;;;6.53;4.40;;;12.60;85.70;;;;;;6192831;23;20145;-82
2021/05/09 03:36:03;;;;;;;4.57;3.77;;;12.60;85.50;;;;;;6226618;23;20152;-82
2021/05/09 03:38:29;;;;;;;4.45;3.92;;;12.60;85.80;;;;;;6165781;23;20215;-82
2021/05/09 03:40:54;;;;;;;4.13;3.70;;;12.50;86.40;;;;;;6217123;23;20622;-82
2021/05/09 03:43:20;;;;;;;4.60;3.70;;;12.50;86.30;;;;;;6165847;23;20176;-82
2021/05/09 03:45:46;;;;;;;7.63;3.87;;;12.50;87.10;;;;;;6191302;23;20157;-82
2021/05/09 03:48:11;;;;;;;3.77;3.47;;;12.60;87.00;;;;;;6204787;23;20147;-81
2021/05/09 03:50:37;;;;;;;4.37;3.33;;;12.50;87.90;;;;;;6226807;23;20168;-83
2021/05/09 03:53:02;;;;;;;5.50;4.20;;;12.50;88.10;;;;;;6190540;23;20145;-82
2021/05/09 03:55:28;;;;;;;4.43;3.90;;;12.50;88.20;;;;;;6217240;23;20325;-82
2021/05/09 03:57:53;;;;;;;5.40;3.60;;;12.50;88.40;;;;;;6165298;23;20323;-82
2021/05/09 04:00:19;;;;;;;5.63;4.10;;;12.60;88.40;;;;;;6166154;23;20227;-82
2021/05/09 04:02:45;;;;;;;4.60;4.00;;;12.60;89.40;;;;;;6218071;23;20633;-81
2021/05/09 04:05:11;;;;;;;9.20;3.90;;;12.60;90.00;;;;;;6218348;23;20156;-82
2021/05/09 04:07:37;;;;;;;5.68;4.30;;;12.60;89.90;;;;;;6218842;23;20145;-82
2021/05/09 04:10:04;;;;;;;7.25;4.00;;;12.60;90.00;;;;;;6190818;23;20542;-82
2021/05/09 04:12:30;;;;;;;5.70;4.10;;;12.60;90.20;;;;;;6216286;23;20153;-82
2021/05/09 04:14:55;;;;;;;3.97;3.57;;;12.70;90.10;;;;;;6189404;23;20153;-83
2021/05/09 04:17:21;;;;;;;7.07;4.27;;;12.70;90.20;;;;;;6140353;23;20610;-82
2021/05/09 04:19:47;;;;;;;4.13;3.73;;;12.70;90.20;;;;;;6190131;23;20153;-83
2021/05/09 04:22:12;;;;;;;5.30;3.80;;;12.70;90.90;;;;;;6190054;23;20179;-83
2021/05/09 04:24:37;;;;;;;6.53;3.60;;;12.70;90.60;;;;;;6216780;23;20530;-81
2021/05/09 04:27:03;;;;;;;6.27;4.80;;;12.70;90.90;;;;;;6217389;23;20149;-82
2021/05/09 04:29:29;;;;;;;4.87;4.07;;;12.60;90.70;;;;;;6190112;23;20184;-82
2021/05/09 04:31:57;;;;;;;4.40;3.50;;;12.60;90.90;;;;;;6217412;23;20156;-81
2021/05/09 04:34:23;;;;;;;6.18;3.63;;;12.60;91.10;;;;;;6220158;23;20482;-82
2021/05/09 04:36:48;;;;;;;9.93;3.80;;;12.50;91.60;;;;;;6179928;23;20244;-82
2021/05/09 04:39:14;;;;;;;6.00;4.13;;;12.50;91.60;;;;;;6217104;23;20161;-83
2021/05/09 04:41:39;;;;;;;5.03;3.97;;;12.60;91.80;;;;;;6216900;23;20188;-83
2021/05/09 04:44:05;;;;;;;6.00;3.60;;;12.50;91.60;;;;;;6217704;23;20137;-82
2021/05/09 04:46:31;;;;;;;5.03;4.00;;;12.50;91.60;;;;;;6190801;23;20149;-82
2021/05/09 04:48:56;;;;;;;6.00;4.30;;;12.50;92.40;;;;;;6217337;23;20905;-82
2021/05/09 04:51:22;;;;;;;6.73;3.47;;;12.60;91.90;;;;;;6217310;23;20630;-82
2021/05/09 04:53:48;;;;;;;5.90;3.73;;;12.60;92.60;;;;;;6166900;23;20176;-82
2021/05/09 04:56:17;;;;;;;5.50;3.60;;;12.60;92.70;;;;;;6217276;23;20156;-83
2021/05/09 04:58:42;;;;;;;5.38;4.03;;;12.60;92.60;;;;;;6191797;23;20156;-82
2021/05/09 05:01:09;;;;;;;6.00;3.93;;;12.70;93.00;;;;;;6218708;23;20186;-83
2021/05/09 05:03:36;;;;;;;4.55;3.83;;;12.70;93.80;;;;;;6219109;23;20168;-84
2021/05/09 05:06:03;;;;;;;5.90;4.10;;;12.80;93.80;;;;;;6191453;23;20176;-82
2021/05/09 05:08:31;;;;;;;5.80;4.20;;;12.80;92.90;;;;;;6169747;23;20163;-83
2021/05/09 05:10:59;;;;;;;4.90;3.90;;;12.90;93.30;;;;;;6194087;23;20223;-84
2021/05/09 05:13:33;;;;;;;4.75;3.80;;;12.90;93.40;;;;;;6217808;23;20184;-82
2021/05/09 05:16:04;;;;;;;4.00;3.20;;;13.00;93.50;;;;;;6171134;23;20189;-82
2021/05/09 05:18:30;;;;;;;5.10;3.78;;;13.00;93.10;;;;;;6194870;23;20173;-83
2021/05/09 05:21:05;;;;;;;5.82;3.88;;;13.00;93.50;;;;;;6217982;23;20161;-82
2021/05/09 05:23:35;;;;;;;5.47;3.72;;;13.10;93.70;;;;;;6225948;23;20125;-82
2021/05/09 05:26:02;;;;;;;4.22;3.80;;;13.20;93.20;;;;;;6221573;23;20141;-82
2021/05/09 05:28:28;;;;;;;6.07;3.80;;;13.40;93.50;;;;;;6194837;23;20157;-83
2021/05/09 05:30:54;;;;;;;4.00;3.63;;;13.70;92.70;;;;;;6194259;23;20219;-82
2021/05/09 05:33:33;;;;;;;4.57;2.93;;;14.00;92.60;;;;;;6195223;23;20153;-82
2021/05/09 05:36:01;;;;;;;4.15;3.53;;;14.40;91.40;;;;;;6198935;23;20168;-82
2021/05/09 05:38:26;;;;;;;3.70;3.40;;;14.80;91.10;;;;;;6172826;23;20623;-83
2021/05/09 05:40:55;;;;;;;5.80;3.40;;;15.20;90.00;;;;;;6223678;23;20166;-82
2021/05/09 05:43:26;;;;;;;5.07;3.45;;;15.30;90.20;;;;;;6177008;23;20188;-84
2021/05/09 05:45:53;;;;;;;3.78;3.28;;;15.40;89.30;;;;;;6221372;23;20249;-82
2021/05/09 05:48:19;;;;;;;3.88;3.58;;;15.50;88.10;;;;;;6193397;23;20174;-83
2021/05/09 05:50:45;;;;;;;4.80;3.33;;;15.80;87.60;;;;;;6190097;23;20181;-83
2021/05/09 05:53:11;;;;;;;9.07;3.63;;;15.80;88.00;;;;;;6190920;23;20582;-82
2021/05/09 05:55:36;;;;;;;4.80;2.90;;;15.90;86.60;;;;;;6218426;23;20587;-83
2021/05/09 05:58:02;;;;;;;5.27;4.33;;;16.00;87.90;;;;;;6165165;23;20153;-83
2021/05/09 06:00:28;;;;;;;5.73;4.33;;;16.10;87.60;;;;;;6216471;23;20172;-81
2021/05/09 06:02:53;;;;;;;4.87;3.37;;;16.10;87.10;;;;;;6165139;23;20161;-83
2021/05/09 06:05:19;;;;;;;3.90;2.70;;;16.10;86.70;;;;;;6216421;23;20176;-83
2021/05/09 06:07:47;;;;;;;3.77;2.87;;;16.30;87.70;;;;;;6164576;23;20161;-82
2021/05/09 06:10:13;;;;;;;4.27;3.20;;;16.50;87.40;;;;;;6216236;23;20180;-82
2021/05/09 06:12:38;;;;;;;5.33;3.90;;;16.40;86.10;;;;;;6189754;23;20463;-83
2021/05/09 06:15:05;;;;;;;4.33;3.00;;;16.60;86.70;;;;;;6217010;23;20211;-83
2021/05/09 06:17:31;;;;;;;4.20;3.10;;;16.60;86.40;;;;;;6190283;23;20772;-82
2021/05/09 06:19:59;;;;;;;3.27;2.63;;;16.70;85.80;;;;;;6190518;23;20387;-81
2021/05/09 06:22:24;;;;;;;3.97;3.23;;;16.80;86.80;;;;;;6165752;23;20169;-82
2021/05/09 06:24:50;;;;;;;3.83;2.40;;;16.80;85.10;;;;;;6217404;23;20861;-82
2021/05/09 06:27:16;;;;;;;7.50;3.57;;;16.90;83.80;;;;;;6165540;23;20157;-83
2021/05/09 06:29:42;;;;;;;4.60;3.23;;;16.80;84.40;;;;;;6222547;23;20177;-82
2021/05/09 06:32:07;;;;;;;3.10;2.80;;;16.80;84.80;;;;;;6218404;23;20165;-83
2021/05/09 06:34:33;;;;;;;3.53;2.60;;;16.80;83.40;;;;;;6190930;23;20776;-82
2021/05/09 06:36:58;;;;;;;3.30;3.00;;;16.60;84.70;;;;;;6142028;23;20160;-83
2021/05/09 06:39:26;;;;;;;3.27;2.60;;;16.80;84.20;;;;;;6191134;23;20176;-83
2021/05/09 06:41:52;;;;;;;4.70;2.80;;;16.90;83.80;;;;;;6167625;23;20184;-83
2021/05/09 06:44:17;;;;;;;3.93;2.83;;;17.20;84.20;;;;;;6168103;23;20781;-83
2021/05/09 06:46:43;;;;;;;4.20;3.30;;;17.30;84.10;;;;;;6218016;23;20239;-83
2021/05/09 06:49:09;;;;;;;3.10;2.67;;;17.30;83.30;;;;;;6194462;23;20177;-82
2021/05/09 06:51:34;;;;;;;2.77;2.50;;;17.10;83.00;;;;;;6191092;23;20615;-82
2021/05/09 06:54:00;;;;;;;3.10;2.50;;;17.00;85.60;;;;;;6218824;23;20165;-82
2021/05/09 06:56:27;;;;;;;4.47;2.80;;;16.70;85.90;;;;;;6168532;23;20236;-82
2021/05/09 06:58:52;;;;;;;3.43;3.13;;;16.70;85.50;;;;;;6219951;23;20368;-82
2021/05/09 07:01:18;;;;;;;3.27;2.70;;;16.80;87.70;;;;;;6195994;23;20475;-83
2021/05/09 07:03:47;;;;;;;6.07;3.60;;;16.90;85.60;;;;;;6199254;23;20179;-83
2021/05/09 07:06:18;;;;;;;3.13;2.83;;;17.20;86.70;;;;;;6169466;23;20184;-83
2021/05/09 07:08:43;;;;;;;2.53;2.33;;;17.50;85.90;;;;;;6194724;23;20979;-82
2021/05/09 07:11:09;;;;;;;3.80;2.50;;;17.80;84.40;;;;;;6219270;23;20405;-82
2021/05/09 07:13:34;;;;;;;3.83;2.77;;;17.90;85.00;;;;;;6221437;23;20599;-83
2021/05/09 07:16:00;;;;;;;3.37;3.07;;;18.00;83.00;;;;;;6194005;23;20150;-82
2021/05/09 07:18:27;;;;;;;2.50;2.20;;;18.30;83.30;;;;;;6167946;23;20241;-83
2021/05/09 07:20:59;;;;;;;3.50;3.00;;;18.50;83.50;;;;;;6193055;23;20170;-83
2021/05/09 07:23:30;;;;;;;2.87;2.10;;;18.70;83.30;;;;;;6195114;23;20858;-82
2021/05/09 07:25:56;;;;;;;2.70;2.50;;;18.80;82.80;;;;;;6194204;23;20448;-82
2021/05/09 07:28:22;;;;;;;2.53;2.33;;;18.80;82.60;;;;;;6169771;23;20382;-82
2021/05/09 07:30:50;;;;;;;4.10;2.53;;;18.80;81.60;;;;;;6197266;23;20501;-85
2021/05/09 07:33:19;;;;;;;2.87;2.30;;;18.70;82.00;;;;;;6224081;23;20371;-83
2021/05/09 07:35:45;;;;;;;2.77;2.50;;;18.70;82.10;;;;;;6195806;23;20375;-82
2021/05/09 07:38:12;;;;;;;3.33;1.87;;;18.70;82.10;;;;;;6199090;23;20390;-82
2021/05/09 07:40:45;;;;;;;2.87;2.43;;;18.60;82.60;;;;;;6224618;23;20171;-82
2021/05/09 07:43:11;;;;;;;2.33;2.13;;;18.60;81.30;;;;;;6226202;23;20401;-84
2021/05/09 07:45:37;;;;;;;3.20;2.10;;;18.60;82.20;;;;;;6202155;23;20392;-82
2021/05/09 07:48:03;;;;;;;3.07;1.90;;;18.60;81.70;;;;;;6228193;23;20386;-81
2021/05/09 07:50:28;;;;;;;1.83;1.73;;;18.70;82.30;;;;;;6202058;23;20387;-82
2021/05/09 07:53:00;;;;;;;2.20;2.00;;;18.80;82.70;;;;;;6201763;23;20391;-82
2021/05/09 07:55:26;;;;;;;2.10;1.90;;;18.80;82.00;;;;;;6178161;23;20222;-83
2021/05/09 07:57:52;;;;;;;2.40;2.20;;;19.00;82.10;;;;;;6227471;23;20426;-82
2021/05/09 08:00:19;;;;;;;3.20;2.33;;;18.90;81.70;;;;;;6197658;23;20383;-82
2021/05/09 08:02:45;;;;;;;2.20;2.00;;;19.00;81.80;;;;;;6198638;23;20196;-84
2021/05/09 08:05:12;;;;;;;2.10;1.90;;;19.00;80.70;;;;;;6174501;23;20411;-83
2021/05/09 08:07:51;;;;;;;1.60;1.50;;;18.90;81.40;;;;;;6200036;23;20594;-83
2021/05/09 08:10:17;;;;;;;2.43;2.23;;;19.00;81.80;;;;;;6197567;23;20908;-83
2021/05/09 08:12:43;;;;;;;3.00;2.40;;;18.90;82.70;;;;;;6198605;23;20380;-82
2021/05/09 08:15:13;;;;;;;2.57;2.23;;;19.00;83.70;;;;;;6173006;23;20214;-83
2021/05/09 08:17:38;;;;;;;4.90;2.50;;;19.00;83.40;;;;;;6197510;23;20217;-81
2021/05/09 08:20:06;;;;;;;3.60;2.10;;;19.00;83.60;;;;;;6223823;23;20380;-83
2021/05/09 08:22:32;;;;;;;3.20;2.50;;;19.10;84.70;;;;;;6197273;23;20157;-83
2021/05/09 08:24:59;;;;;;;2.33;1.83;;;19.10;83.60;;;;;;6223830;23;20375;-84
2021/05/09 08:27:33;;;;;;;2.30;2.00;;;19.10;84.50;;;;;;6197392;23;20372;-84
2021/05/09 08:29:58;;;;;;;4.47;2.33;;;19.20;84.60;;;;;;6221989;23;20407;-82
2021/05/09 08:32:24;;;;;;;1.63;1.53;;;19.20;83.90;;;;;;6220609;23;20849;-82
2021/05/09 08:34:52;;;;;;;2.43;1.63;;;19.20;83.60;;;;;;6219906;23;20140;-82
2021/05/09 08:37:18;;;;;;;3.33;2.00;;;19.20;84.10;;;;;;6192783;23;20376;-82
2021/05/09 08:39:44;;;;;;;1.97;1.70;;;19.20;84.60;;;;;;6203438;23;20403;-83
2021/05/09 08:42:14;;;;;;;2.40;1.97;;;19.30;84.30;;;;;;6227422;23;20235;-82
2021/05/09 08:44:39;;;;;;;3.20;1.80;;;19.20;84.20;;;;;;6196169;23;20226;-83
2021/05/09 08:47:07;;;;;;;3.20;2.47;;;19.10;84.40;;;;;;6221942;23;20376;-83
2021/05/09 08:49:40;;;;;;;4.23;2.10;;;19.10;85.60;;;;;;6194489;23;20189;-84
2021/05/09 08:52:07;;;;;;;2.23;1.60;;;19.20;85.50;;;;;;6171225;23;20935;-83
2021/05/09 08:54:33;;;;;;;2.43;1.97;;;19.20;86.00;;;;;;6196986;23;20423;-83
2021/05/09 08:56:58;;;;;;;4.00;2.30;;;19.30;85.00;;;;;;6200186;23;20760;-83
2021/05/09 08:59:24;;;;;;;2.20;2.00;;;19.30;86.00;;;;;;6201926;23;20167;-83
2021/05/09 09:01:52;;;;;;;2.70;2.00;;;19.30;85.50;;;;;;6208471;23;20242;-83
2021/05/09 09:04:18;;;;;;;2.77;2.10;;;19.30;85.50;;;;;;6176155;23;20168;-83
2021/05/09 09:06:46;;;;;;;1.50;1.30;;;19.30;85.30;;;;;;6173988;23;20392;-82
2021/05/09 09:09:23;;;;;;;2.47;1.57;;;19.40;84.00;;;;;;6197536;23;20184;-84
2021/05/09 09:12:00;;;;;;;1.97;1.50;;;19.40;83.90;;;;;;6224179;23;20387;-84
2021/05/09 09:14:26;;;;;;;2.57;1.77;;;19.40;83.70;;;;;;6199539;23;20441;-83
2021/05/09 09:17:14;;;;;;;4.13;2.07;;;19.50;83.90;;;;;;6196502;23;20384;-83
2021/05/09 09:20:18;;;;;;;1.97;1.73;;;19.60;83.10;;;;;;6223122;23;20375;-83
2021/05/09 09:22:50;;;;;;;1.90;1.60;;;19.70;82.50;;;;;;6161909;23;20454;-83
2021/05/09 09:25:17;;;;;;;1.73;1.60;;;19.80;82.50;;;;;;6196960;23;20416;-83
2021/05/09 09:27:48;;;;;;;3.30;1.50;;;19.80;81.20;;;;;;6196186;23;20439;-84
2021/05/09 09:30:15;;;;;;;2.17;1.30;;;19.90;81.20;;;;;;6170358;23;20458;-83
2021/05/09 09:33:14;;;;;;;2.00;1.60;;;20.00;80.60;;;;;;6170401;23;20376;-83
2021/05/09 09:35:44;;;;;;;1.60;1.30;;;19.90;81.00;;;;;;6196672;23;20369;-83
2021/05/09 09:38:28;;;;;;;1.60;1.40;;;20.00;81.40;;;;;;6221742;23;20373;-83
2021/05/09 09:41:13;;;;;;;2.17;1.57;;;20.10;80.70;;;;;;6220813;23;20474;-83
2021/05/09 09:43:40;;;;;;;4.80;2.30;;;20.20;80.70;;;;;;6194658;23;20399;-84
2021/05/09 09:46:24;;;;;;;1.93;1.30;;;;;;;;;;6195894;23;20745;-83
2021/05/09 09:48:50;;;;;;;1.33;1.23;;;20.30;79.20;;;;;;6223356;23;20419;-82
2021/05/09 09:51:16;;;;;;;2.03;1.10;;;20.40;80.80;;;;;;6195947;23;20397;-84
2021/05/09 09:53:44;;;;;;;2.20;1.20;;;20.50;80.20;;;;;;6224689;23;20404;-82
2021/05/09 09:56:24;;;;;;;2.47;1.90;;;20.50;79.50;;;;;;6223872;23;20153;-83
2021/05/09 09:58:57;;;;;;;1.40;1.27;;;20.60;79.50;;;;;;6222705;23;20696;-83
2021/05/09 10:01:25;;;;;;;2.13;1.53;;;20.60;78.30;;;;;;6147995;23;20436;-84
2021/05/09 10:03:52;;;;;;;1.50;1.40;;;20.60;79.00;;;;;;6197433;23;20402;-84
2021/05/09 10:06:19;;;;;;;2.03;1.73;;;20.70;79.60;;;;;;6174041;23;20402;-83
2021/05/09 10:08:45;;;;;;;1.50;1.23;;;20.80;79.80;;;;;;6198658;23;20486;-82
2021/05/09 10:11:12;;;;;;;2.37;1.47;;;20.90;79.20;;;;;;6171951;23;20430;-83
2021/05/09 10:13:38;;;;;;;1.80;1.30;;;20.90;79.50;;;;;;6195845;23;20382;-83
2021/05/09 10:16:05;;;;;;;2.40;1.50;;;21.00;79.10;;;;;;6197532;23;20450;-83
2021/05/09 10:18:32;;;;;;;1.77;1.20;;;21.10;78.60;;;;;;6224309;23;20382;-83
2021/05/09 10:20:58;;;;;;;1.80;1.27;;;21.10;78.50;;;;;;6226926;23;20470;-82
2021/05/09 10:23:24;;;;;;;1.70;1.60;;;21.10;78.30;;;;;;6197577;23;20397;-83
2021/05/09 10:25:49;;;;;;;1.93;1.60;;;21.10;77.60;;;;;;6226554;23;20367;-83
2021/05/09 10:28:17;;;;;;;1.53;1.30;;;21.10;77.40;;;;;;6202060;23;20151;-84
2021/05/09 10:30:57;;;;;;;1.50;1.07;;;21.00;77.70;;;;;;6176699;23;20190;-84
2021/05/09 10:33:38;;;;;;;1.50;1.30;;;21.10;78.00;;;;;;6200397;23;20387;-83
2021/05/09 10:36:09;;;;;;;1.70;1.40;;;21.20;78.00;;;;;;6228050;23;20370;-83
2021/05/09 10:39:12;;;;;;;2.40;2.17;;;21.20;77.50;;;;;;6174758;23;20466;-83
2021/05/09 10:41:53;;;;;;;1.40;1.30;;;21.20;77.90;;;;;;6223542;23;20418;-83
2021/05/09 10:44:41;;;;;;;3.00;1.33;;;21.30;77.80;;;;;;6199127;23;20383;-84
2021/05/09 10:47:13;;;;;;;1.80;1.70;;;21.30;77.00;;;;;;6225586;23;20374;-82
2021/05/09 10:50:27;;;;;;;2.17;1.77;;;21.40;76.90;;;;;;6225889;23;20441;-83
2021/05/09 10:52:55;;;;;;;1.70;1.60;;;21.40;77.10;;;;;;6226372;23;20386;-83
2021/05/09 10:55:36;;;;;;;1.73;1.30;;;21.40;76.60;;;;;;6203144;23;20382;-84
2021/05/09 10:58:02;;;;;;;2.13;1.50;;;21.50;76.00;;;;;;6201157;23;20382;-84
2021/05/09 11:00:28;;;;;;;1.60;1.30;;;21.60;75.30;;;;;;6201144;23;20414;-83
2021/05/09 11:02:54;;;;;;;3.57;1.27;;;21.60;74.50;;;;;;6226635;23;20402;-83
2021/05/09 11:05:20;;;;;;;2.20;1.60;;;21.60;74.10;;;;;;6197391;23;20171;-83
2021/05/09 11:07:46;;;;;;;2.17;1.73;;;21.60;72.50;;;;;;6222735;23;20151;-83
2021/05/09 11:10:40;;;;;;;3.00;2.17;;;21.60;71.50;;;;;;6195640;23;20482;-83
2021/05/09 11:13:07;;;;;;;3.77;1.43;;;21.60;69.40;;;;;;6205218;23;20158;-83
2021/05/09 11:15:33;;;;;;;3.27;2.33;;;21.70;71.30;;;;;;6226926;23;20454;-84
2021/05/09 11:17:59;;;;;;;2.03;1.60;;;21.80;72.00;;;;;;6199597;23;20380;-83
2021/05/09 11:20:25;;;;;;;2.83;1.50;;;21.90;69.60;;;;;;6173580;23;20179;-83
2021/05/09 11:22:59;;;;;;;1.60;1.40;;;21.90;69.60;;;;;;6199501;23;20626;-84
2021/05/09 11:25:32;;;;;;;1.50;1.30;;;22.00;69.20;;;;;;6197936;23;20404;-83
2021/05/09 11:27:58;;;;;;;1.70;1.57;;;22.00;67.00;;;;;;6224009;23;20408;-83
2021/05/09 11:30:34;;;;;;;2.00;1.47;;;22.00;66.00;;;;;;6172822;23;20442;-84
2021/05/09 11:33:00;;;;;;;1.80;1.13;;;22.00;63.80;;;;;;6197691;23;21098;-83
2021/05/09 11:35:37;;;;;;;1.50;1.30;;;22.10;60.60;;;;;;6196833;23;20384;-84
2021/05/09 11:38:02;;;;;;;5.03;1.57;;;22.10;62.10;;;;;;6198605;23;20156;-84
2021/05/09 11:40:28;;;;;;;2.07;1.80;;;22.10;66.20;;;;;;6197305;23;20497;-84
2021/05/09 11:42:54;;;;;;;2.13;1.53;;;22.10;67.00;;;;;;6224656;23;20160;-83
2021/05/09 11:45:26;;;;;;;6.53;1.80;;;22.20;63.80;;;;;;6198979;23;20176;-82
2021/05/09 11:47:52;;;;;;;1.83;1.30;;;22.20;62.60;;;;;;6171353;23;20171;-83
2021/05/09 11:50:18;;;;;;;1.90;1.53;;;22.20;62.00;;;;;;6175199;23;20424;-82
2021/05/09 11:52:46;;;;;;;2.03;1.47;;;22.20;60.60;;;;;;6173804;23;20240;-83
2021/05/09 11:55:15;;;;;;;1.77;1.17;;;22.30;60.40;;;;;;6224582;23;20364;-83
2021/05/09 11:57:44;;;;;;;1.73;1.30;;;22.30;58.70;;;;;;6198085;23;20390;-83
2021/05/09 12:00:11;;;;;;;1.80;1.70;;;22.40;58.60;;;;;;6173715;23;20388;-83
2021/05/09 12:02:39;;;;;;;2.10;1.60;;;22.40;58.90;;;;;;6197582;23;20390;-83
2021/05/09 12:05:18;;;;;;;2.60;1.53;;;22.50;59.70;;;;;;6198450;23;20403;-82
2021/05/09 12:08:00;;;;;;;1.50;1.40;;;22.50;60.70;;;;;;6175731;23;20395;-83
2021/05/09 12:10:28;;;;;;;2.07;1.33;;;22.50;61.30;;;;;;6195893;23;20820;-83
2021/05/09 12:12:55;;;;;;;2.07;1.43;;;22.40;61.50;;;;;;6223210;23;20372;-82
2021/05/09 12:15:21;;;;;;;1.20;1.10;;;22.40;62.20;;;;;;6197924;23;20883;-83
2021/05/09 12:17:56;;;;;;;1.50;1.30;;;22.40;62.10;;;;;;6201872;23;20379;-83
2021/05/09 12:20:40;;;;;;;5.00;1.67;;;22.40;62.20;;;;;;6225453;23;20399;-84
2021/05/09 12:23:16;;;;;;;2.17;1.73;;;22.40;62.00;;;;;;6197400;23;20739;-83
2021/05/09 12:25:43;;;;;;;3.23;1.90;;;22.50;61.50;;;;;;6199765;23;20364;-83
2021/05/09 12:28:29;;;;;;;1.53;1.30;;;22.60;61.60;;;;;;6198004;23;20387;-84
2021/05/09 12:30:55;;;;;;;3.83;1.80;;;22.60;60.70;;;;;;6197254;23;20399;-83
2021/05/09 12:33:28;;;;;;;2.10;1.17;;;22.70;60.40;;;;;;6222255;23;20376;-83
2021/05/09 12:35:55;;;;;;;1.47;1.37;;;22.70;59.10;;;;;;6173043;23;20384;-82
2021/05/09 12:38:25;;;;;;;1.73;1.30;;;22.60;59.00;;;;;;6198365;23;20406;-83
2021/05/09 12:41:14;;;;;;;3.47;2.00;;;22.70;59.50;;;;;;6198016;23;20395;-83
2021/05/09 12:43:49;;;;;;;2.10;1.90;;;22.70;59.60;;;;;;6222563;23;20536;-83
2021/05/09 12:46:47;;;;;;;1.97;1.47;;;22.80;60.60;;;;;;6197647;23;20435;-83
2021/05/09 12:49:29;;;;;;;1.70;1.43;;;22.80;59.80;;;;;;6197768;23;20427;-83
2021/05/09 12:51:55;;;;;;;1.70;1.43;;;22.70;60.60;;;;;;6198500;23;20427;-83
2021/05/09 12:54:39;;;;;;;2.23;1.43;;;22.80;60.10;;;;;;6226929;23;20423;-83